createdAt,value
2017-12-16T00:01:08.838Z,86.55
2017-12-16T00:03:36.390Z,86.51
2017-12-16T00:06:03.940Z,87.17
2017-12-16T00:08:31.474Z,87.12
2017-12-16T00:10:59.011Z,87.25
2017-12-16T00:13:26.550Z,87.25
2017-12-16T00:15:54.085Z,87.13
2017-12-16T00:18:21.614Z,87.24
2017-12-16T00:20:49.147Z,87.07
2017-12-16T00:23:16.678Z,87.17
2017-12-16T00:25:44.232Z,87.09
2017-12-16T00:28:11.786Z,87.44
2017-12-16T00:30:39.337Z,87.50
2017-12-16T00:33:06.878Z,87.51
2017-12-16T00:35:34.428Z,87.69
2017-12-16T00:38:01.973Z,87.64
2017-12-16T00:40:29.511Z,87.94
2017-12-16T00:42:57.064Z,87.93
2017-12-16T00:45:24.594Z,88.08
2017-12-16T00:47:52.127Z,88.14
2017-12-16T00:50:19.662Z,88.08
2017-12-16T00:52:47.205Z,87.82
2017-12-16T00:55:14.749Z,88.05
2017-12-16T00:57:42.287Z,87.88
2017-12-16T01:00:09.826Z,87.89
2017-12-16T01:02:37.365Z,87.90
2017-12-16T01:05:04.901Z,88.02
2017-12-16T01:07:32.445Z,87.86
2017-12-16T01:09:59.986Z,87.81
2017-12-16T01:12:27.550Z,87.99
2017-12-16T01:14:55.098Z,88.07
2017-12-16T01:17:22.643Z,87.94
2017-12-16T01:19:50.189Z,88.04
2017-12-16T01:22:17.734Z,87.96
2017-12-16T01:24:45.265Z,88.10
2017-12-16T01:27:12.809Z,88.06
2017-12-16T01:29:40.341Z,88.01
2017-12-16T01:32:07.891Z,88.20
2017-12-16T01:37:48.981Z,88.27
2017-12-16T01:40:16.530Z,88.11
2017-12-16T01:42:44.060Z,88.12
2017-12-16T01:45:11.611Z,88.26
2017-12-16T01:47:39.158Z,88.18
2017-12-16T01:50:06.740Z,88.25
2017-12-16T01:52:34.292Z,88.18
2017-12-16T01:55:01.830Z,88.34
2017-12-16T01:57:29.374Z,88.44
2017-12-16T01:59:56.921Z,88.69
2017-12-16T02:02:24.470Z,88.59
2017-12-16T02:04:52.033Z,88.63
2017-12-16T02:07:19.570Z,88.85
2017-12-16T02:09:47.110Z,88.73
2017-12-16T02:12:14.658Z,88.57
2017-12-16T02:14:42.189Z,88.49
2017-12-16T02:17:09.734Z,88.61
2017-12-16T02:19:37.274Z,88.60
2017-12-16T02:22:04.814Z,88.56
2017-12-16T02:24:32.357Z,88.86
2017-12-16T02:26:59.890Z,88.71
2017-12-16T02:29:27.434Z,88.73
2017-12-16T02:31:54.978Z,88.83
2017-12-16T02:34:22.527Z,89.01
2017-12-16T02:36:50.073Z,89.43
2017-12-16T02:39:17.605Z,89.28
2017-12-16T02:41:45.143Z,89.24
2017-12-16T02:44:12.674Z,89.28
2017-12-16T02:46:40.225Z,89.32
2017-12-16T02:49:07.753Z,89.22
2017-12-16T02:51:35.299Z,89.25
2017-12-16T02:54:02.839Z,89.55
2017-12-16T02:56:30.390Z,89.59
2017-12-16T02:58:57.943Z,89.47
2017-12-16T03:01:25.482Z,89.64
2017-12-16T03:03:53.014Z,89.57
2017-12-16T03:06:20.565Z,89.48
2017-12-16T03:08:48.106Z,89.63
2017-12-16T03:11:15.646Z,89.45
2017-12-16T03:13:43.181Z,89.36
2017-12-16T03:16:10.710Z,89.24
2017-12-16T03:18:38.254Z,89.49
2017-12-16T03:21:05.797Z,89.47
2017-12-16T03:23:33.351Z,89.47
2017-12-16T03:26:00.899Z,89.64
2017-12-16T03:28:28.438Z,89.76
2017-12-16T03:30:55.980Z,89.58
2017-12-16T03:33:23.522Z,89.46
2017-12-16T03:35:51.053Z,89.62
2017-12-16T03:38:18.598Z,89.78
2017-12-16T03:40:46.121Z,89.54
2017-12-16T03:43:13.662Z,89.47
2017-12-16T03:45:41.198Z,89.56
2017-12-16T03:48:08.754Z,89.51
2017-12-16T03:50:36.301Z,89.56
2017-12-16T03:53:03.841Z,89.80
2017-12-16T03:55:31.377Z,89.62
2017-12-16T03:57:58.917Z,89.60
2017-12-16T04:00:26.458Z,89.65
2017-12-16T04:02:54.003Z,89.69
2017-12-16T04:05:21.595Z,89.66
2017-12-16T04:07:49.134Z,89.78
2017-12-16T04:10:16.693Z,90.01
2017-12-16T04:12:44.247Z,89.87
2017-12-16T04:15:11.807Z,89.82
2017-12-16T04:17:39.354Z,89.77
2017-12-16T04:20:06.886Z,89.72
2017-12-16T04:22:34.431Z,89.65
2017-12-16T04:25:01.982Z,89.93
2017-12-16T04:27:29.531Z,89.73
2017-12-16T04:29:57.089Z,89.62
2017-12-16T04:32:24.634Z,89.37
2017-12-16T04:34:52.182Z,89.49
2017-12-16T04:37:19.735Z,89.65
2017-12-16T04:39:47.291Z,89.87
2017-12-16T04:42:14.822Z,90.01
2017-12-16T04:44:42.358Z,90.12
2017-12-16T04:47:09.912Z,89.83
2017-12-16T04:49:37.470Z,89.96
2017-12-16T04:52:05.028Z,89.91
2017-12-16T04:54:32.562Z,89.93
2017-12-16T04:57:00.120Z,89.83
2017-12-16T04:59:27.661Z,90.12
2017-12-16T05:01:55.218Z,89.95
2017-12-16T05:04:22.762Z,90.08
2017-12-16T05:06:50.308Z,89.97
2017-12-16T05:09:17.850Z,89.91
2017-12-16T05:11:45.404Z,90.04
2017-12-16T05:14:12.951Z,90.22
2017-12-16T05:16:40.503Z,90.16
2017-12-16T05:19:08.054Z,90.27
2017-12-16T05:21:35.598Z,90.28
2017-12-16T05:24:03.149Z,90.21
2017-12-16T05:26:30.691Z,90.19
2017-12-16T05:28:58.226Z,90.04
2017-12-16T05:31:25.763Z,90.29
2017-12-16T05:33:53.311Z,90.29
2017-12-16T05:36:20.850Z,90.18
2017-12-16T05:38:48.399Z,90.12
2017-12-16T05:41:15.936Z,90.19
2017-12-16T05:43:43.480Z,90.12
2017-12-16T05:46:11.031Z,90.22
2017-12-16T05:48:38.565Z,90.44
2017-12-16T05:51:06.106Z,90.23
2017-12-16T05:53:33.647Z,90.18
2017-12-16T05:56:01.185Z,90.20
2017-12-16T05:58:28.726Z,90.18
2017-12-16T06:00:56.275Z,90.12
2017-12-16T06:03:23.832Z,90.18
2017-12-16T06:05:51.391Z,90.09
2017-12-16T06:08:18.943Z,90.14
2017-12-16T06:10:46.495Z,89.91
2017-12-16T06:13:14.039Z,89.83
2017-12-16T06:15:41.582Z,89.81
2017-12-16T06:18:09.131Z,89.75
2017-12-16T06:20:36.673Z,89.63
2017-12-16T06:23:04.202Z,89.58
2017-12-16T06:25:31.730Z,89.38
2017-12-16T06:27:59.278Z,89.25
2017-12-16T06:30:26.812Z,89.29
2017-12-16T06:32:54.346Z,89.18
2017-12-16T06:35:21.919Z,89.26
2017-12-16T06:37:49.466Z,89.57
2017-12-16T06:40:17.015Z,89.51
2017-12-16T06:42:44.557Z,89.39
2017-12-16T06:45:12.081Z,89.34
2017-12-16T06:47:39.624Z,89.32
2017-12-16T06:50:07.161Z,89.27
2017-12-16T06:52:34.690Z,89.33
2017-12-16T06:55:02.225Z,89.03
2017-12-16T06:57:29.776Z,89.11
2017-12-16T06:59:57.320Z,89.08
2017-12-16T07:02:24.862Z,88.95
2017-12-16T07:04:52.420Z,88.69
2017-12-16T07:07:19.979Z,88.78
2017-12-16T07:09:47.534Z,89.00
2017-12-16T07:12:15.067Z,88.92
2017-12-16T07:14:42.629Z,88.83
2017-12-16T07:17:10.169Z,88.80
2017-12-16T07:19:37.698Z,88.75
2017-12-16T07:22:05.281Z,88.76
2017-12-16T07:24:32.830Z,88.80
2017-12-16T07:27:00.377Z,88.73
2017-12-16T07:29:27.910Z,88.82
2017-12-16T07:31:55.457Z,88.88
2017-12-16T07:34:23.002Z,88.89
2017-12-16T07:36:50.542Z,88.88
2017-12-16T07:39:18.094Z,88.70
2017-12-16T07:41:45.642Z,88.23
2017-12-16T07:44:13.191Z,88.20
2017-12-16T07:46:40.742Z,88.02
2017-12-16T07:49:08.301Z,88.22
2017-12-16T07:51:35.865Z,88.07
2017-12-16T07:54:03.411Z,88.17
2017-12-16T07:56:30.954Z,87.84
2017-12-16T07:58:58.511Z,87.89
2017-12-16T08:01:26.062Z,87.29
2017-12-16T08:03:53.598Z,87.51
2017-12-16T08:06:21.143Z,87.44
2017-12-16T08:08:48.691Z,87.43
2017-12-16T08:11:16.235Z,87.57
2017-12-16T08:13:43.787Z,87.96
2017-12-16T08:16:11.339Z,87.66
2017-12-16T08:18:38.900Z,87.81
2017-12-16T08:21:06.447Z,87.71
2017-12-16T08:23:33.990Z,86.85
2017-12-16T08:26:01.529Z,86.15
2017-12-16T08:28:29.087Z,86.05
2017-12-16T08:30:56.628Z,85.40
2017-12-16T08:33:24.186Z,85.30
2017-12-16T08:35:51.735Z,83.44
2017-12-16T08:38:19.291Z,84.13
2017-12-16T08:40:46.843Z,85.16
2017-12-16T08:43:14.405Z,84.18
2017-12-16T08:45:41.951Z,85.25
2017-12-16T08:48:09.499Z,85.35
2017-12-16T08:50:37.051Z,84.55
2017-12-16T08:53:04.597Z,85.16
2017-12-16T08:55:32.154Z,84.76
2017-12-16T08:57:59.732Z,84.63
2017-12-16T09:00:27.289Z,84.26
2017-12-16T09:02:54.850Z,84.15
2017-12-16T09:05:22.390Z,84.52
2017-12-16T09:07:49.946Z,84.08
2017-12-16T09:10:17.815Z,83.32
2017-12-16T09:12:45.748Z,83.76
2017-12-16T09:15:13.299Z,83.43
2017-12-16T09:17:40.830Z,83.82
2017-12-16T09:20:08.594Z,83.32
2017-12-16T09:22:36.142Z,83.51
2017-12-16T09:25:03.707Z,83.31
2017-12-16T09:27:31.248Z,82.92
2017-12-16T09:29:58.791Z,82.58
2017-12-16T09:32:26.325Z,82.44
2017-12-16T09:34:53.875Z,82.31
2017-12-16T09:37:21.436Z,81.83
2017-12-16T09:39:48.989Z,81.71
2017-12-16T09:42:16.539Z,80.52
2017-12-16T09:44:44.082Z,80.42
2017-12-16T09:47:11.614Z,80.73
2017-12-16T09:49:39.155Z,81.08
2017-12-16T09:52:06.760Z,81.61
2017-12-16T09:54:36.500Z,81.72
2017-12-16T09:57:06.223Z,82.22
2017-12-16T09:59:33.945Z,82.39
2017-12-16T10:02:01.564Z,81.80
2017-12-16T10:04:29.642Z,82.38
2017-12-16T10:06:57.189Z,82.93
2017-12-16T10:09:24.749Z,83.20
2017-12-16T10:11:52.273Z,82.49
2017-12-16T10:14:19.806Z,82.87
2017-12-16T10:16:47.333Z,82.55
2017-12-16T10:19:14.863Z,83.01
2017-12-16T10:21:42.393Z,82.53
2017-12-16T10:24:09.911Z,83.26
2017-12-16T10:26:37.445Z,83.47
2017-12-16T10:29:04.982Z,84.33
2017-12-16T10:31:32.620Z,84.46
2017-12-16T10:34:00.144Z,87.40
2017-12-16T10:36:27.676Z,87.06
2017-12-16T10:38:55.202Z,84.92
2017-12-16T10:41:22.726Z,85.59
2017-12-16T10:43:50.271Z,85.37
2017-12-16T10:46:17.798Z,85.63
2017-12-16T10:48:45.324Z,85.85
2017-12-16T10:51:12.882Z,85.77
2017-12-16T10:53:40.411Z,86.17
2017-12-16T10:56:07.932Z,86.10
2017-12-16T10:58:35.511Z,86.37
2017-12-16T11:01:03.050Z,86.27
2017-12-16T11:03:30.574Z,86.84
2017-12-16T11:05:58.107Z,86.55
2017-12-16T11:08:25.627Z,86.41
2017-12-16T11:10:53.152Z,86.35
2017-12-16T11:13:20.678Z,86.26
2017-12-16T11:15:48.250Z,86.36
2017-12-16T11:18:15.825Z,86.28
2017-12-16T11:20:43.364Z,86.09
2017-12-16T11:23:10.906Z,86.37
2017-12-16T11:25:38.462Z,86.38
2017-12-16T11:28:05.988Z,86.66
2017-12-16T11:30:33.502Z,86.70
2017-12-16T11:33:01.032Z,86.59
2017-12-16T11:35:29.410Z,86.46
2017-12-16T11:37:56.938Z,86.14
2017-12-16T11:40:24.459Z,86.33
2017-12-16T11:42:51.987Z,85.76
2017-12-16T11:45:20.394Z,85.58
2017-12-16T11:47:48.211Z,84.92
2017-12-16T11:50:15.750Z,85.13
2017-12-16T11:52:43.278Z,85.12
2017-12-16T11:55:10.810Z,84.83
2017-12-16T11:57:38.337Z,84.67
2017-12-16T12:00:06.779Z,84.61
2017-12-16T12:02:34.306Z,84.81
2017-12-16T12:05:01.833Z,84.54
2017-12-16T12:07:29.359Z,84.93
2017-12-16T12:09:57.777Z,84.86
2017-12-16T12:12:25.847Z,85.35
2017-12-16T12:14:53.365Z,84.78
2017-12-16T12:17:20.881Z,84.92
2017-12-16T12:19:48.407Z,84.68
2017-12-16T12:22:15.947Z,85.02
2017-12-16T12:24:43.468Z,85.14
2017-12-16T12:27:10.985Z,84.88
2017-12-16T12:29:38.504Z,85.05
2017-12-16T12:32:06.017Z,85.21
2017-12-16T12:34:33.534Z,85.24
2017-12-16T12:37:01.061Z,85.31
2017-12-16T12:39:28.589Z,85.66
2017-12-16T12:41:56.109Z,85.60
2017-12-16T12:44:23.642Z,85.88
2017-12-16T12:46:51.166Z,85.73
2017-12-16T12:49:18.685Z,85.84
2017-12-16T12:51:46.251Z,85.92
2017-12-16T12:54:13.782Z,85.94
2017-12-16T12:56:41.305Z,85.97
2017-12-16T12:59:08.865Z,86.23
2017-12-16T13:01:36.412Z,86.40
2017-12-16T13:04:03.970Z,86.74
2017-12-16T13:06:31.500Z,86.91
2017-12-16T13:08:59.026Z,87.11
2017-12-16T13:11:26.548Z,87.23
2017-12-16T13:13:54.070Z,86.92
2017-12-16T13:16:21.593Z,87.27
2017-12-16T13:18:49.109Z,87.04
2017-12-16T13:21:16.645Z,87.13
2017-12-16T13:23:44.201Z,87.48
2017-12-16T13:26:11.756Z,87.63
2017-12-16T13:28:39.277Z,87.51
2017-12-16T13:31:06.798Z,87.81
2017-12-16T13:33:34.317Z,87.94
2017-12-16T13:36:01.834Z,87.89
2017-12-16T13:38:29.349Z,88.18
2017-12-16T13:40:56.874Z,88.52
2017-12-16T13:43:24.417Z,88.53
2017-12-16T13:45:51.963Z,88.97
2017-12-16T13:48:19.499Z,88.95
2017-12-16T13:50:47.027Z,88.96
2017-12-16T13:53:14.541Z,89.48
2017-12-16T13:55:42.058Z,89.50
2017-12-16T13:58:10.168Z,89.48
2017-12-16T14:00:37.702Z,89.01
2017-12-16T14:03:05.597Z,89.39
2017-12-16T14:05:33.126Z,89.05
2017-12-16T14:08:00.667Z,89.36
2017-12-16T14:10:28.225Z,89.27
2017-12-16T14:12:55.779Z,89.38
2017-12-16T14:15:23.304Z,89.15
2017-12-16T14:17:50.825Z,89.18
2017-12-16T14:20:18.357Z,89.22
2017-12-16T14:22:45.876Z,89.27
2017-12-16T14:25:13.933Z,89.17
2017-12-16T14:27:41.456Z,89.33
2017-12-16T14:30:08.990Z,89.47
2017-12-16T14:32:36.530Z,89.59
2017-12-16T14:35:04.838Z,89.67
2017-12-16T14:37:32.362Z,89.65
2017-12-16T14:39:59.885Z,89.70
2017-12-16T14:42:27.417Z,89.56
2017-12-16T14:44:54.990Z,89.68
2017-12-16T14:47:22.509Z,89.95
2017-12-16T14:49:50.047Z,89.88
2017-12-16T14:52:17.686Z,89.78
2017-12-16T16:16:42.165Z,91.50
2017-12-16T16:19:09.682Z,91.16
2017-12-16T16:21:38.130Z,92.06
2017-12-16T16:24:06.105Z,91.37
2017-12-16T16:26:33.629Z,91.19
2017-12-16T16:29:01.154Z,91.11
2017-12-16T16:31:28.675Z,90.97
2017-12-16T16:33:56.208Z,90.65
2017-12-16T16:36:23.734Z,90.53
2017-12-16T16:38:51.252Z,90.70
2017-12-16T16:41:18.778Z,90.80
2017-12-16T16:43:46.311Z,90.83
2017-12-16T16:46:13.849Z,90.64
2017-12-16T16:48:41.369Z,90.79
2017-12-16T16:51:08.885Z,90.29
2017-12-16T16:53:36.409Z,90.54
2017-12-16T16:56:03.939Z,90.64
2017-12-16T16:58:31.479Z,90.56
2017-12-16T17:00:58.992Z,90.57
2017-12-16T17:03:26.539Z,90.35
2017-12-16T17:05:54.571Z,90.38
2017-12-16T17:08:22.112Z,90.33
2017-12-16T17:10:49.669Z,90.62
2017-12-16T17:13:17.220Z,90.49
2017-12-16T17:15:44.784Z,90.37
2017-12-16T17:18:12.334Z,90.63
2017-12-16T17:20:39.865Z,90.60
2017-12-16T17:23:07.394Z,90.75
2017-12-16T17:25:35.258Z,90.35
2017-12-16T17:28:02.816Z,90.36
2017-12-16T17:30:30.382Z,90.55
2017-12-16T17:32:57.935Z,90.36
2017-12-16T17:35:25.465Z,90.35
2017-12-16T17:37:52.990Z,90.42
2017-12-16T17:40:20.520Z,90.49
2017-12-16T17:42:48.039Z,90.96
2017-12-16T17:45:15.599Z,90.70
2017-12-16T17:47:43.167Z,90.47
2017-12-16T17:50:10.698Z,90.61
2017-12-16T17:52:38.222Z,90.69
2017-12-16T17:55:05.739Z,90.62
2017-12-16T17:57:33.261Z,90.55
2017-12-16T18:00:00.842Z,90.47
2017-12-16T18:02:28.413Z,90.61
2017-12-16T18:04:55.955Z,90.68
2017-12-16T18:07:23.485Z,90.34
2017-12-16T18:09:51.035Z,90.38
2017-12-16T18:12:18.574Z,90.31
2017-12-16T18:14:46.115Z,90.16
2017-12-16T18:17:13.646Z,90.04
2017-12-16T18:19:41.167Z,89.96
2017-12-16T18:22:08.681Z,89.89
2017-12-16T18:24:36.214Z,89.80
2017-12-16T18:27:03.790Z,89.95
2017-12-16T18:29:31.328Z,90.20
2017-12-16T18:31:58.891Z,90.05
2017-12-16T18:34:26.452Z,90.19
2017-12-16T18:36:53.998Z,90.19
2017-12-16T18:39:21.539Z,90.22
2017-12-16T18:41:49.058Z,90.32
2017-12-16T18:44:16.581Z,90.28
2017-12-16T18:46:44.102Z,90.23
2017-12-16T18:49:11.661Z,90.23
2017-12-16T18:51:39.198Z,90.33
2017-12-16T18:54:06.737Z,90.24
2017-12-16T18:56:34.262Z,90.24
2017-12-16T18:59:01.782Z,90.29
2017-12-16T19:01:29.309Z,90.21
2017-12-16T19:03:56.857Z,90.26
2017-12-16T19:06:24.454Z,90.29
2017-12-16T19:08:51.982Z,90.51
2017-12-16T19:11:19.513Z,90.46
2017-12-16T19:13:47.043Z,90.17
2017-12-16T19:16:14.629Z,90.15
2017-12-16T19:18:42.160Z,90.19
2017-12-16T19:21:09.689Z,90.19
2017-12-16T19:23:37.221Z,90.26
2017-12-16T19:26:04.777Z,90.24
2017-12-16T19:28:32.297Z,89.99
2017-12-16T19:30:59.824Z,89.89
2017-12-16T19:33:27.347Z,89.93
2017-12-16T19:35:54.908Z,89.86
2017-12-16T19:38:22.443Z,89.81
2017-12-16T19:40:49.962Z,89.75
2017-12-16T19:43:17.486Z,89.76
2017-12-16T19:45:45.036Z,89.49
2017-12-16T19:48:12.568Z,89.55
2017-12-16T19:50:40.098Z,89.38
2017-12-16T19:53:07.610Z,89.42
2017-12-16T19:55:35.190Z,89.52
2017-12-16T19:58:02.714Z,89.55
2017-12-16T20:00:30.260Z,89.60
2017-12-16T20:02:57.790Z,89.48
2017-12-16T20:05:25.317Z,89.47
2017-12-16T20:07:52.890Z,89.43
2017-12-16T20:10:20.427Z,89.31
2017-12-16T20:12:47.954Z,89.56
2017-12-16T20:15:15.494Z,89.46
2017-12-16T20:17:43.056Z,89.43
2017-12-16T20:20:10.584Z,89.68
2017-12-16T20:22:38.115Z,89.64
2017-12-16T20:25:05.644Z,89.64
2017-12-16T20:27:33.174Z,89.84
2017-12-16T20:30:00.722Z,90.16
2017-12-16T20:32:28.258Z,90.29
2017-12-16T20:34:55.784Z,90.30
2017-12-16T20:37:23.332Z,90.33
2017-12-16T20:39:50.865Z,90.24
2017-12-16T20:42:18.390Z,90.39
2017-12-16T20:44:45.913Z,90.37
2017-12-16T20:47:13.433Z,90.57
2017-12-16T20:49:40.958Z,90.75
2017-12-16T20:52:08.481Z,90.73
2017-12-16T20:54:36.011Z,90.79
2017-12-16T20:57:03.583Z,90.87
2017-12-16T20:59:31.096Z,90.86
2017-12-16T21:01:58.619Z,91.05
2017-12-16T21:04:26.166Z,90.92
2017-12-16T21:06:53.737Z,91.07
2017-12-16T21:09:21.296Z,91.05
2017-12-16T21:11:48.836Z,91.23
2017-12-16T21:14:16.370Z,90.95
2017-12-16T21:16:43.897Z,91.04
2017-12-16T21:19:11.425Z,90.85
2017-12-16T21:21:38.946Z,90.85
2017-12-16T21:24:06.479Z,90.76
2017-12-16T21:26:34.023Z,90.70
2017-12-16T21:29:01.646Z,90.63
2017-12-16T21:31:29.501Z,90.54
2017-12-16T21:33:57.176Z,90.40
2017-12-16T21:36:24.843Z,90.30
2017-12-16T21:38:52.536Z,90.07
2017-12-16T21:41:20.221Z,89.90
2017-12-16T21:43:47.947Z,89.82
2017-12-16T21:46:15.656Z,89.86
2017-12-16T21:48:43.499Z,89.71
2017-12-16T21:51:11.172Z,89.62
2017-12-16T21:53:38.790Z,89.50
2017-12-16T21:56:06.410Z,89.56
2017-12-16T21:58:33.982Z,89.41
2017-12-16T22:01:03.108Z,89.37
2017-12-16T22:03:32.618Z,89.08
2017-12-16T22:06:01.013Z,89.03
2017-12-16T22:08:29.218Z,88.87
2017-12-16T22:10:57.008Z,89.04
2017-12-16T22:13:24.743Z,89.17
2017-12-16T22:15:52.462Z,88.88
2017-12-16T22:18:20.291Z,88.75
2017-12-16T22:20:48.112Z,88.97
2017-12-16T22:23:15.759Z,88.66
2017-12-16T22:25:43.455Z,88.75
2017-12-16T22:28:11.051Z,88.87
2017-12-16T22:30:38.717Z,88.58
2017-12-16T22:33:06.322Z,88.70
2017-12-16T22:35:33.960Z,88.58
2017-12-16T22:38:01.534Z,88.61
2017-12-16T22:40:29.178Z,88.51
2017-12-16T22:42:56.992Z,88.50
2017-12-16T22:45:24.646Z,88.69
2017-12-16T22:47:52.310Z,88.33
2017-12-16T22:50:19.919Z,88.34
2017-12-16T22:52:47.552Z,88.32
2017-12-16T22:55:15.151Z,88.29
2017-12-16T22:57:42.689Z,88.58
2017-12-16T23:00:10.418Z,88.19
2017-12-16T23:02:38.094Z,88.12
2017-12-16T23:05:05.811Z,88.38
2017-12-16T23:07:33.598Z,88.15
2017-12-16T23:10:01.170Z,88.36
2017-12-16T23:12:28.837Z,88.17
2017-12-16T23:14:56.462Z,88.05
2017-12-16T23:17:24.106Z,88.24
2017-12-16T23:19:52.105Z,88.41
2017-12-16T23:22:22.459Z,88.37
2017-12-16T23:24:50.142Z,88.42
2017-12-16T23:27:17.690Z,88.45
2017-12-16T23:29:45.332Z,88.46
2017-12-16T23:32:14.299Z,88.33
2017-12-16T23:34:44.109Z,88.33
2017-12-16T23:37:15.272Z,88.17
2017-12-16T23:39:45.013Z,88.11
2017-12-16T23:42:14.362Z,87.89
2017-12-16T23:44:42.953Z,88.20
2017-12-16T23:47:10.801Z,87.83
2017-12-16T23:49:38.640Z,87.88
2017-12-16T23:52:06.400Z,87.48
2017-12-16T23:54:35.655Z,87.70
2017-12-16T23:57:04.875Z,87.69
